sensor_id;sensor_type;location;lat;lon;timestamp;P1;durP1;ratioP1;P2;durP2;ratioP2
51312;SDS011;37397;53.226;10.400;2024-01-30T00:00:45;11.27;;;7.07;;
51312;SDS011;37397;53.226;10.400;2024-01-30T00:03:12;11.43;;;7.03;;
51312;SDS011;37397;53.226;10.400;2024-01-30T00:05:39;12.27;;;7.30;;
51312;SDS011;37397;53.226;10.400;2024-01-30T00:08:06;10.13;;;7.10;;
51312;SDS011;37397;53.226;10.400;2024-01-30T00:10:33;11.13;;;7.22;;
51312;SDS011;37397;53.226;10.400;2024-01-30T00:12:59;11.40;;;7.10;;
51312;SDS011;37397;53.226;10.400;2024-01-30T00:15:26;13.93;;;6.88;;
51312;SDS011;37397;53.226;10.400;2024-01-30T00:17:52;14.35;;;7.03;;
51312;SDS011;37397;53.226;10.400;2024-01-30T00:20:20;12.15;;;7.07;;
51312;SDS011;37397;53.226;10.400;2024-01-30T00:22:47;12.18;;;7.93;;
51312;SDS011;37397;53.226;10.400;2024-01-30T00:25:14;13.63;;;7.82;;
51312;SDS011;37397;53.226;10.400;2024-01-30T00:27:41;11.82;;;7.72;;
51312;SDS011;37397;53.226;10.400;2024-01-30T00:30:08;12.25;;;7.63;;
51312;SDS011;37397;53.226;10.400;2024-01-30T00:32:35;15.32;;;7.72;;
51312;SDS011;37397;53.226;10.400;2024-01-30T00:35:01;14.63;;;7.97;;
51312;SDS011;37397;53.226;10.400;2024-01-30T00:37:28;12.65;;;7.18;;
51312;SDS011;37397;53.226;10.400;2024-01-30T00:39:55;13.57;;;7.97;;
51312;SDS011;37397;53.226;10.400;2024-01-30T00:42:21;11.30;;;7.22;;
51312;SDS011;37397;53.226;10.400;2024-01-30T00:44:50;13.98;;;7.60;;
51312;SDS011;37397;53.226;10.400;2024-01-30T00:47:17;13.15;;;8.20;;
51312;SDS011;37397;53.226;10.400;2024-01-30T00:49:43;15.50;;;8.82;;
51312;SDS011;37397;53.226;10.400;2024-01-30T00:52:10;13.43;;;7.97;;
51312;SDS011;37397;53.226;10.400;2024-01-30T00:54:37;12.95;;;7.90;;
51312;SDS011;37397;53.226;10.400;2024-01-30T00:57:03;12.60;;;7.57;;
51312;SDS011;37397;53.226;10.400;2024-01-30T00:59:30;12.20;;;7.85;;
51312;SDS011;37397;53.226;10.400;2024-01-30T01:01:57;12.75;;;7.90;;
51312;SDS011;37397;53.226;10.400;2024-01-30T01:04:24;11.63;;;7.60;;
51312;SDS011;37397;53.226;10.400;2024-01-30T01:06:50;13.57;;;7.35;;
51312;SDS011;37397;53.226;10.400;2024-01-30T01:09:17;14.52;;;8.13;;
51312;SDS011;37397;53.226;10.400;2024-01-30T01:11:44;12.23;;;7.90;;
51312;SDS011;37397;53.226;10.400;2024-01-30T01:14:10;12.82;;;8.10;;
51312;SDS011;37397;53.226;10.400;2024-01-30T01:16:37;12.32;;;7.75;;
51312;SDS011;37397;53.226;10.400;2024-01-30T01:19:03;12.80;;;7.45;;
51312;SDS011;37397;53.226;10.400;2024-01-30T01:21:31;13.27;;;7.60;;
51312;SDS011;37397;53.226;10.400;2024-01-30T01:23:57;12.77;;;7.85;;
51312;SDS011;37397;53.226;10.400;2024-01-30T01:26:24;11.95;;;7.78;;
51312;SDS011;37397;53.226;10.400;2024-01-30T01:28:50;13.88;;;8.18;;
51312;SDS011;37397;53.226;10.400;2024-01-30T01:31:17;15.00;;;8.68;;
51312;SDS011;37397;53.226;10.400;2024-01-30T01:33:44;15.20;;;8.68;;
51312;SDS011;37397;53.226;10.400;2024-01-30T01:36:13;13.43;;;8.65;;
51312;SDS011;37397;53.226;10.400;2024-01-30T01:38:40;14.85;;;9.27;;
51312;SDS011;37397;53.226;10.400;2024-01-30T01:41:06;14.65;;;8.93;;
51312;SDS011;37397;53.226;10.400;2024-01-30T01:43:33;13.27;;;8.65;;
51312;SDS011;37397;53.226;10.400;2024-01-30T01:45:59;17.63;;;8.70;;
51312;SDS011;37397;53.226;10.400;2024-01-30T01:48:27;13.82;;;8.93;;
51312;SDS011;37397;53.226;10.400;2024-01-30T01:50:56;15.30;;;8.52;;
51312;SDS011;37397;53.226;10.400;2024-01-30T01:53:23;15.45;;;9.02;;
51312;SDS011;37397;53.226;10.400;2024-01-30T01:55:50;12.43;;;8.30;;
51312;SDS011;37397;53.226;10.400;2024-01-30T01:58:19;13.43;;;8.13;;
51312;SDS011;37397;53.226;10.400;2024-01-30T02:00:47;15.95;;;8.40;;
51312;SDS011;37397;53.226;10.400;2024-01-30T02:03:14;15.73;;;8.65;;
51312;SDS011;37397;53.226;10.400;2024-01-30T02:05:44;12.48;;;8.15;;
51312;SDS011;37397;53.226;10.400;2024-01-30T02:08:11;15.75;;;8.63;;
51312;SDS011;37397;53.226;10.400;2024-01-30T02:10:39;15.57;;;8.18;;
51312;SDS011;37397;53.226;10.400;2024-01-30T02:13:06;14.68;;;8.38;;
51312;SDS011;37397;53.226;10.400;2024-01-30T02:15:32;12.85;;;8.20;;
51312;SDS011;37397;53.226;10.400;2024-01-30T02:17:59;14.00;;;8.38;;
51312;SDS011;37397;53.226;10.400;2024-01-30T02:20:25;16.45;;;9.10;;
51312;SDS011;37397;53.226;10.400;2024-01-30T02:22:56;13.25;;;8.48;;
51312;SDS011;37397;53.226;10.400;2024-01-30T02:25:31;13.90;;;8.10;;
51312;SDS011;37397;53.226;10.400;2024-01-30T02:27:59;11.38;;;8.23;;
51312;SDS011;37397;53.226;10.400;2024-01-30T02:30:26;15.10;;;8.45;;
51312;SDS011;37397;53.226;10.400;2024-01-30T02:32:53;15.27;;;8.70;;
51312;SDS011;37397;53.226;10.400;2024-01-30T02:35:19;12.90;;;8.27;;
51312;SDS011;37397;53.226;10.400;2024-01-30T02:37:46;16.65;;;9.43;;
51312;SDS011;37397;53.226;10.400;2024-01-30T02:40:12;12.80;;;8.32;;
51312;SDS011;37397;53.226;10.400;2024-01-30T02:42:39;15.57;;;9.05;;
51312;SDS011;37397;53.226;10.400;2024-01-30T02:45:06;12.07;;;8.18;;
51312;SDS011;37397;53.226;10.400;2024-01-30T02:47:33;13.48;;;8.27;;
51312;SDS011;37397;53.226;10.400;2024-01-30T02:49:59;14.23;;;8.63;;
51312;SDS011;37397;53.226;10.400;2024-01-30T02:52:26;14.40;;;8.90;;
51312;SDS011;37397;53.226;10.400;2024-01-30T02:54:53;13.50;;;8.48;;
51312;SDS011;37397;53.226;10.400;2024-01-30T02:57:19;13.60;;;8.60;;
51312;SDS011;37397;53.226;10.400;2024-01-30T02:59:46;14.70;;;8.20;;
51312;SDS011;37397;53.226;10.400;2024-01-30T03:02:12;15.93;;;8.63;;
51312;SDS011;37397;53.226;10.400;2024-01-30T03:04:40;13.52;;;8.85;;
51312;SDS011;37397;53.226;10.400;2024-01-30T03:07:07;13.57;;;8.73;;
51312;SDS011;37397;53.226;10.400;2024-01-30T03:09:34;15.55;;;9.68;;
51312;SDS011;37397;53.226;10.400;2024-01-30T03:12:03;16.23;;;9.40;;
51312;SDS011;37397;53.226;10.400;2024-01-30T03:14:34;14.57;;;9.82;;
51312;SDS011;37397;53.226;10.400;2024-01-30T03:17:01;15.75;;;9.13;;
51312;SDS011;37397;53.226;10.400;2024-01-30T03:19:27;14.50;;;9.48;;
51312;SDS011;37397;53.226;10.400;2024-01-30T03:21:54;14.13;;;9.45;;
51312;SDS011;37397;53.226;10.400;2024-01-30T03:24:21;14.63;;;8.98;;
51312;SDS011;37397;53.226;10.400;2024-01-30T03:26:48;13.85;;;8.52;;
51312;SDS011;37397;53.226;10.400;2024-01-30T03:29:14;17.77;;;9.75;;
51312;SDS011;37397;53.226;10.400;2024-01-30T03:31:41;14.13;;;9.35;;
51312;SDS011;37397;53.226;10.400;2024-01-30T03:34:08;18.80;;;10.13;;
51312;SDS011;37397;53.226;10.400;2024-01-30T03:36:35;17.20;;;9.60;;
51312;SDS011;37397;53.226;10.400;2024-01-30T03:39:01;16.27;;;9.18;;
51312;SDS011;37397;53.226;10.400;2024-01-30T03:41:28;14.73;;;9.10;;
51312;SDS011;37397;53.226;10.400;2024-01-30T03:43:54;14.45;;;9.10;;
51312;SDS011;37397;53.226;10.400;2024-01-30T03:46:21;14.30;;;9.57;;
51312;SDS011;37397;53.226;10.400;2024-01-30T03:48:47;14.43;;;9.27;;
51312;SDS011;37397;53.226;10.400;2024-01-30T03:51:14;14.35;;;9.10;;
51312;SDS011;37397;53.226;10.400;2024-01-30T03:53:42;13.10;;;9.00;;
51312;SDS011;37397;53.226;10.400;2024-01-30T03:56:09;14.80;;;8.80;;
51312;SDS011;37397;53.226;10.400;2024-01-30T03:58:36;12.80;;;8.50;;
51312;SDS011;37397;53.226;10.400;2024-01-30T04:01:02;13.57;;;8.80;;
51312;SDS011;37397;53.226;10.400;2024-01-30T04:03:30;14.85;;;9.50;;
51312;SDS011;37397;53.226;10.400;2024-01-30T04:05:56;17.10;;;9.63;;
51312;SDS011;37397;53.226;10.400;2024-01-30T04:08:23;16.05;;;9.98;;
51312;SDS011;37397;53.226;10.400;2024-01-30T04:10:50;13.15;;;8.52;;
51312;SDS011;37397;53.226;10.400;2024-01-30T04:13:16;15.52;;;9.35;;
51312;SDS011;37397;53.226;10.400;2024-01-30T04:15:43;14.30;;;9.07;;
51312;SDS011;37397;53.226;10.400;2024-01-30T04:18:09;15.05;;;9.13;;
51312;SDS011;37397;53.226;10.400;2024-01-30T04:20:36;16.70;;;10.23;;
51312;SDS011;37397;53.226;10.400;2024-01-30T04:23:02;15.02;;;9.35;;
51312;SDS011;37397;53.226;10.400;2024-01-30T04:25:29;15.00;;;9.13;;
51312;SDS011;37397;53.226;10.400;2024-01-30T04:27:56;15.10;;;9.57;;
51312;SDS011;37397;53.226;10.400;2024-01-30T04:30:22;14.38;;;9.50;;
51312;SDS011;37397;53.226;10.400;2024-01-30T04:32:49;15.52;;;9.55;;
51312;SDS011;37397;53.226;10.400;2024-01-30T04:35:16;15.52;;;9.60;;
51312;SDS011;37397;53.226;10.400;2024-01-30T04:37:42;15.13;;;9.60;;
51312;SDS011;37397;53.226;10.400;2024-01-30T04:40:09;14.45;;;9.60;;
51312;SDS011;37397;53.226;10.400;2024-01-30T04:42:36;15.45;;;9.18;;
51312;SDS011;37397;53.226;10.400;2024-01-30T04:45:03;16.77;;;10.20;;
51312;SDS011;37397;53.226;10.400;2024-01-30T04:47:29;14.32;;;8.98;;
51312;SDS011;37397;53.226;10.400;2024-01-30T04:49:56;14.63;;;9.50;;
51312;SDS011;37397;53.226;10.400;2024-01-30T04:52:23;15.40;;;9.77;;
51312;SDS011;37397;53.226;10.400;2024-01-30T04:54:49;15.23;;;9.63;;
51312;SDS011;37397;53.226;10.400;2024-01-30T04:57:16;14.02;;;9.07;;
51312;SDS011;37397;53.226;10.400;2024-01-30T04:59:42;16.67;;;10.15;;
51312;SDS011;37397;53.226;10.400;2024-01-30T05:02:09;16.83;;;10.00;;
51312;SDS011;37397;53.226;10.400;2024-01-30T05:04:36;14.80;;;9.45;;
51312;SDS011;37397;53.226;10.400;2024-01-30T05:07:02;14.65;;;10.18;;
51312;SDS011;37397;53.226;10.400;2024-01-30T05:09:29;14.27;;;9.60;;
51312;SDS011;37397;53.226;10.400;2024-01-30T05:11:55;15.18;;;9.93;;
51312;SDS011;37397;53.226;10.400;2024-01-30T05:14:22;16.15;;;10.40;;
51312;SDS011;37397;53.226;10.400;2024-01-30T05:16:49;17.27;;;10.35;;
51312;SDS011;37397;53.226;10.400;2024-01-30T05:19:15;17.02;;;10.15;;
51312;SDS011;37397;53.226;10.400;2024-01-30T05:21:43;14.40;;;9.63;;
51312;SDS011;37397;53.226;10.400;2024-01-30T05:24:10;17.38;;;10.45;;
51312;SDS011;37397;53.226;10.400;2024-01-30T05:26:37;15.75;;;10.27;;
51312;SDS011;37397;53.226;10.400;2024-01-30T05:29:04;16.00;;;9.77;;
51312;SDS011;37397;53.226;10.400;2024-01-30T05:31:31;18.25;;;10.15;;
51312;SDS011;37397;53.226;10.400;2024-01-30T05:33:57;16.42;;;10.55;;
51312;SDS011;37397;53.226;10.400;2024-01-30T05:36:24;17.33;;;10.90;;
51312;SDS011;37397;53.226;10.400;2024-01-30T05:38:51;16.58;;;10.70;;
51312;SDS011;37397;53.226;10.400;2024-01-30T05:41:17;17.98;;;10.45;;
51312;SDS011;37397;53.226;10.400;2024-01-30T05:43:44;17.02;;;10.68;;
51312;SDS011;37397;53.226;10.400;2024-01-30T05:46:11;17.67;;;11.02;;
51312;SDS011;37397;53.226;10.400;2024-01-30T05:48:38;16.05;;;10.40;;
51312;SDS011;37397;53.226;10.400;2024-01-30T05:51:04;17.65;;;10.73;;
51312;SDS011;37397;53.226;10.400;2024-01-30T05:53:33;16.02;;;10.18;;
51312;SDS011;37397;53.226;10.400;2024-01-30T05:56:01;17.35;;;11.82;;
51312;SDS011;37397;53.226;10.400;2024-01-30T05:58:28;16.45;;;10.43;;
51312;SDS011;37397;53.226;10.400;2024-01-30T06:00:55;16.35;;;10.77;;
51312;SDS011;37397;53.226;10.400;2024-01-30T06:03:22;18.30;;;10.95;;
51312;SDS011;37397;53.226;10.400;2024-01-30T06:05:48;20.52;;;11.60;;
51312;SDS011;37397;53.226;10.400;2024-01-30T06:08:15;18.42;;;11.43;;
51312;SDS011;37397;53.226;10.400;2024-01-30T06:10:41;18.77;;;11.85;;
51312;SDS011;37397;53.226;10.400;2024-01-30T06:13:08;17.63;;;11.73;;
51312;SDS011;37397;53.226;10.400;2024-01-30T06:15:35;18.50;;;11.35;;
51312;SDS011;37397;53.226;10.400;2024-01-30T06:18:01;16.83;;;10.77;;
51312;SDS011;37397;53.226;10.400;2024-01-30T06:20:28;18.45;;;11.32;;
51312;SDS011;37397;53.226;10.400;2024-01-30T06:22:55;16.17;;;10.77;;
51312;SDS011;37397;53.226;10.400;2024-01-30T06:25:21;18.30;;;11.60;;
51312;SDS011;37397;53.226;10.400;2024-01-30T06:27:48;18.55;;;11.63;;
51312;SDS011;37397;53.226;10.400;2024-01-30T06:30:15;21.15;;;12.00;;
51312;SDS011;37397;53.226;10.400;2024-01-30T06:32:41;17.73;;;11.38;;
51312;SDS011;37397;53.226;10.400;2024-01-30T06:35:08;19.20;;;10.93;;
51312;SDS011;37397;53.226;10.400;2024-01-30T06:37:36;17.25;;;11.25;;
51312;SDS011;37397;53.226;10.400;2024-01-30T06:40:03;19.33;;;12.38;;
51312;SDS011;37397;53.226;10.400;2024-01-30T06:42:31;19.38;;;11.38;;
51312;SDS011;37397;53.226;10.400;2024-01-30T06:44:58;19.75;;;11.77;;
51312;SDS011;37397;53.226;10.400;2024-01-30T06:47:24;17.85;;;11.77;;
51312;SDS011;37397;53.226;10.400;2024-01-30T06:49:51;18.05;;;11.82;;
51312;SDS011;37397;53.226;10.400;2024-01-30T06:52:17;21.08;;;12.30;;
51312;SDS011;37397;53.226;10.400;2024-01-30T06:54:44;19.48;;;12.27;;
51312;SDS011;37397;53.226;10.400;2024-01-30T06:57:11;20.52;;;12.75;;
51312;SDS011;37397;53.226;10.400;2024-01-30T06:59:38;18.50;;;12.73;;
51312;SDS011;37397;53.226;10.400;2024-01-30T07:02:09;20.13;;;12.77;;
51312;SDS011;37397;53.226;10.400;2024-01-30T07:04:37;20.52;;;12.50;;
51312;SDS011;37397;53.226;10.400;2024-01-30T07:07:05;19.90;;;12.43;;
51312;SDS011;37397;53.226;10.400;2024-01-30T07:09:32;20.25;;;12.75;;
51312;SDS011;37397;53.226;10.400;2024-01-30T07:12:00;18.80;;;12.60;;
51312;SDS011;37397;53.226;10.400;2024-01-30T07:14:27;20.70;;;12.50;;
51312;SDS011;37397;53.226;10.400;2024-01-30T07:16:53;21.15;;;13.15;;
51312;SDS011;37397;53.226;10.400;2024-01-30T07:19:20;18.90;;;12.02;;
51312;SDS011;37397;53.226;10.400;2024-01-30T07:21:47;21.35;;;12.68;;
51312;SDS011;37397;53.226;10.400;2024-01-30T07:24:13;21.13;;;12.65;;
51312;SDS011;37397;53.226;10.400;2024-01-30T07:26:40;21.50;;;12.43;;
51312;SDS011;37397;53.226;10.400;2024-01-30T07:29:07;20.58;;;13.35;;
51312;SDS011;37397;53.226;10.400;2024-01-30T07:31:33;20.27;;;12.18;;
51312;SDS011;37397;53.226;10.400;2024-01-30T07:34:03;21.88;;;12.85;;
51312;SDS011;37397;53.226;10.400;2024-01-30T07:36:30;21.35;;;12.52;;
51312;SDS011;37397;53.226;10.400;2024-01-30T07:38:56;18.60;;;12.35;;
51312;SDS011;37397;53.226;10.400;2024-01-30T07:41:23;21.38;;;12.95;;
51312;SDS011;37397;53.226;10.400;2024-01-30T07:43:52;19.73;;;11.77;;
51312;SDS011;37397;53.226;10.400;2024-01-30T07:46:20;18.52;;;12.20;;
51312;SDS011;37397;53.226;10.400;2024-01-30T07:48:47;17.83;;;11.38;;
51312;SDS011;37397;53.226;10.400;2024-01-30T07:51:16;19.50;;;12.05;;
51312;SDS011;37397;53.226;10.400;2024-01-30T07:53:42;18.45;;;11.98;;
51312;SDS011;37397;53.226;10.400;2024-01-30T07:56:09;22.10;;;12.13;;
51312;SDS011;37397;53.226;10.400;2024-01-30T07:58:36;18.35;;;11.98;;
51312;SDS011;37397;53.226;10.400;2024-01-30T08:01:03;18.88;;;11.25;;
51312;SDS011;37397;53.226;10.400;2024-01-30T08:03:30;18.40;;;11.43;;
51312;SDS011;37397;53.226;10.400;2024-01-30T08:05:57;17.10;;;11.80;;
51312;SDS011;37397;53.226;10.400;2024-01-30T08:08:23;17.35;;;11.52;;
51312;SDS011;37397;53.226;10.400;2024-01-30T08:10:50;17.88;;;11.93;;
51312;SDS011;37397;53.226;10.400;2024-01-30T08:13:17;18.67;;;12.35;;
51312;SDS011;37397;53.226;10.400;2024-01-30T08:15:43;19.00;;;11.80;;
51312;SDS011;37397;53.226;10.400;2024-01-30T08:18:10;20.60;;;11.52;;
51312;SDS011;37397;53.226;10.400;2024-01-30T08:20:36;19.48;;;12.00;;
51312;SDS011;37397;53.226;10.400;2024-01-30T08:23:03;20.23;;;11.88;;
51312;SDS011;37397;53.226;10.400;2024-01-30T08:25:30;19.58;;;12.25;;
51312;SDS011;37397;53.226;10.400;2024-01-30T08:27:56;17.25;;;12.05;;
51312;SDS011;37397;53.226;10.400;2024-01-30T08:30:24;18.30;;;11.63;;
51312;SDS011;37397;53.226;10.400;2024-01-30T08:32:50;19.95;;;11.70;;
51312;SDS011;37397;53.226;10.400;2024-01-30T08:35:18;17.73;;;11.15;;
51312;SDS011;37397;53.226;10.400;2024-01-30T08:37:45;17.02;;;10.45;;
51312;SDS011;37397;53.226;10.400;2024-01-30T08:40:11;20.30;;;11.73;;
51312;SDS011;37397;53.226;10.400;2024-01-30T08:42:38;19.33;;;11.70;;
51312;SDS011;37397;53.226;10.400;2024-01-30T08:45:05;17.70;;;10.75;;
51312;SDS011;37397;53.226;10.400;2024-01-30T08:47:32;15.88;;;11.20;;
51312;SDS011;37397;53.226;10.400;2024-01-30T08:49:59;15.73;;;10.27;;
51312;SDS011;37397;53.226;10.400;2024-01-30T08:52:26;18.95;;;11.27;;
51312;SDS011;37397;53.226;10.400;2024-01-30T08:54:53;16.50;;;11.40;;
51312;SDS011;37397;53.226;10.400;2024-01-30T08:57:20;15.10;;;9.98;;
51312;SDS011;37397;53.226;10.400;2024-01-30T08:59:47;17.08;;;11.05;;
51312;SDS011;37397;53.226;10.400;2024-01-30T09:02:14;15.95;;;10.90;;
51312;SDS011;37397;53.226;10.400;2024-01-30T09:04:42;19.60;;;12.02;;
51312;SDS011;37397;53.226;10.400;2024-01-30T09:07:09;17.52;;;11.15;;
51312;SDS011;37397;53.226;10.400;2024-01-30T09:09:37;17.77;;;10.85;;
51312;SDS011;37397;53.226;10.400;2024-01-30T09:12:05;18.88;;;11.35;;
51312;SDS011;37397;53.226;10.400;2024-01-30T09:14:35;17.60;;;10.70;;
51312;SDS011;37397;53.226;10.400;2024-01-30T09:17:03;20.63;;;12.25;;
51312;SDS011;37397;53.226;10.400;2024-01-30T09:19:30;18.73;;;11.77;;
51312;SDS011;37397;53.226;10.400;2024-01-30T09:21:57;19.50;;;11.70;;
51312;SDS011;37397;53.226;10.400;2024-01-30T09:24:24;20.65;;;12.30;;
51312;SDS011;37397;53.226;10.400;2024-01-30T09:26:52;19.38;;;11.35;;
51312;SDS011;37397;53.226;10.400;2024-01-30T09:29:19;19.75;;;11.95;;
51312;SDS011;37397;53.226;10.400;2024-01-30T09:31:45;18.10;;;11.13;;
51312;SDS011;37397;53.226;10.400;2024-01-30T09:34:12;18.98;;;11.75;;
51312;SDS011;37397;53.226;10.400;2024-01-30T09:36:39;21.05;;;12.48;;
51312;SDS011;37397;53.226;10.400;2024-01-30T09:39:06;20.92;;;12.18;;
51312;SDS011;37397;53.226;10.400;2024-01-30T09:41:34;19.85;;;11.98;;
51312;SDS011;37397;53.226;10.400;2024-01-30T09:44:18;19.05;;;11.65;;
51312;SDS011;37397;53.226;10.400;2024-01-30T09:46:47;17.45;;;12.00;;
51312;SDS011;37397;53.226;10.400;2024-01-30T09:49:16;15.13;;;10.57;;
51312;SDS011;37397;53.226;10.400;2024-01-30T09:51:46;17.20;;;11.65;;
51312;SDS011;37397;53.226;10.400;2024-01-30T09:54:14;17.20;;;11.75;;
51312;SDS011;37397;53.226;10.400;2024-01-30T09:56:42;20.00;;;10.90;;
51312;SDS011;37397;53.226;10.400;2024-01-30T09:59:08;17.55;;;11.27;;
51312;SDS011;37397;53.226;10.400;2024-01-30T10:01:35;18.88;;;11.73;;
51312;SDS011;37397;53.226;10.400;2024-01-30T10:04:03;19.55;;;11.50;;
51312;SDS011;37397;53.226;10.400;2024-01-30T10:06:31;17.67;;;11.07;;
51312;SDS011;37397;53.226;10.400;2024-01-30T10:08:57;21.55;;;11.32;;
51312;SDS011;37397;53.226;10.400;2024-01-30T10:11:24;17.90;;;11.57;;
51312;SDS011;37397;53.226;10.400;2024-01-30T10:13:53;19.35;;;11.85;;
51312;SDS011;37397;53.226;10.400;2024-01-30T10:16:20;20.05;;;11.32;;
51312;SDS011;37397;53.226;10.400;2024-01-30T10:18:47;16.58;;;11.13;;
51312;SDS011;37397;53.226;10.400;2024-01-30T10:21:14;19.23;;;10.43;;
51312;SDS011;37397;53.226;10.400;2024-01-30T10:23:40;18.23;;;11.80;;
51312;SDS011;37397;53.226;10.400;2024-01-30T10:26:07;19.35;;;12.07;;
51312;SDS011;37397;53.226;10.400;2024-01-30T10:28:34;21.55;;;11.23;;
51312;SDS011;37397;53.226;10.400;2024-01-30T10:31:00;23.23;;;11.80;;
51312;SDS011;37397;53.226;10.400;2024-01-30T10:33:32;18.40;;;11.35;;
51312;SDS011;37397;53.226;10.400;2024-01-30T10:36:02;20.00;;;12.20;;
51312;SDS011;37397;53.226;10.400;2024-01-30T10:38:31;20.92;;;10.93;;
51312;SDS011;37397;53.226;10.400;2024-01-30T10:41:01;19.40;;;12.00;;
51312;SDS011;37397;53.226;10.400;2024-01-30T10:43:35;20.35;;;10.50;;
51312;SDS011;37397;53.226;10.400;2024-01-30T10:48:36;18.05;;;10.70;;
51312;SDS011;37397;53.226;10.400;2024-01-30T10:51:09;20.30;;;11.45;;
51312;SDS011;37397;53.226;10.400;2024-01-30T10:53:36;18.00;;;11.15;;
51312;SDS011;37397;53.226;10.400;2024-01-30T10:56:04;17.52;;;10.82;;
51312;SDS011;37397;53.226;10.400;2024-01-30T10:58:32;20.23;;;11.27;;
51312;SDS011;37397;53.226;10.400;2024-01-30T11:00:58;18.23;;;10.82;;
51312;SDS011;37397;53.226;10.400;2024-01-30T11:03:26;20.33;;;11.52;;
51312;SDS011;37397;53.226;10.400;2024-01-30T11:05:53;16.80;;;10.15;;
51312;SDS011;37397;53.226;10.400;2024-01-30T11:08:25;19.83;;;11.60;;
51312;SDS011;37397;53.226;10.400;2024-01-30T11:10:58;18.45;;;11.25;;
51312;SDS011;37397;53.226;10.400;2024-01-30T11:13:31;16.77;;;10.25;;
51312;SDS011;37397;53.226;10.400;2024-01-30T11:16:02;16.58;;;10.15;;
51312;SDS011;37397;53.226;10.400;2024-01-30T11:18:32;16.63;;;10.27;;
51312;SDS011;37397;53.226;10.400;2024-01-30T11:20:59;19.95;;;10.82;;
51312;SDS011;37397;53.226;10.400;2024-01-30T11:23:28;16.27;;;10.07;;
51312;SDS011;37397;53.226;10.400;2024-01-30T11:25:56;17.15;;;10.90;;
51312;SDS011;37397;53.226;10.400;2024-01-30T11:28:24;15.90;;;9.75;;
51312;SDS011;37397;53.226;10.400;2024-01-30T11:30:50;15.98;;;9.80;;
51312;SDS011;37397;53.226;10.400;2024-01-30T11:33:27;17.95;;;9.57;;
51312;SDS011;37397;53.226;10.400;2024-01-30T11:36:00;19.10;;;9.70;;
51312;SDS011;37397;53.226;10.400;2024-01-30T11:38:28;14.75;;;9.45;;
51312;SDS011;37397;53.226;10.400;2024-01-30T11:40:55;16.52;;;9.35;;
51312;SDS011;37397;53.226;10.400;2024-01-30T11:43:24;17.60;;;9.52;;
51312;SDS011;37397;53.226;10.400;2024-01-30T11:45:51;15.48;;;9.15;;
51312;SDS011;37397;53.226;10.400;2024-01-30T11:48:19;15.80;;;9.30;;
51312;SDS011;37397;53.226;10.400;2024-01-30T11:50:45;14.23;;;8.82;;
51312;SDS011;37397;53.226;10.400;2024-01-30T11:53:12;19.35;;;9.70;;
51312;SDS011;37397;53.226;10.400;2024-01-30T11:55:39;13.52;;;8.48;;
51312;SDS011;37397;53.226;10.400;2024-01-30T11:58:06;14.73;;;9.15;;
51312;SDS011;37397;53.226;10.400;2024-01-30T12:00:33;16.35;;;9.23;;
51312;SDS011;37397;53.226;10.400;2024-01-30T12:03:01;14.75;;;8.70;;
51312;SDS011;37397;53.226;10.400;2024-01-30T12:05:29;16.17;;;8.45;;
51312;SDS011;37397;53.226;10.400;2024-01-30T12:07:56;12.65;;;8.35;;
51312;SDS011;37397;53.226;10.400;2024-01-30T12:10:26;15.80;;;8.82;;
51312;SDS011;37397;53.226;10.400;2024-01-30T12:12:53;13.60;;;8.32;;
51312;SDS011;37397;53.226;10.400;2024-01-30T12:15:21;15.48;;;8.32;;
51312;SDS011;37397;53.226;10.400;2024-01-30T12:17:48;15.10;;;8.75;;
51312;SDS011;37397;53.226;10.400;2024-01-30T12:20:19;13.70;;;8.88;;
51312;SDS011;37397;53.226;10.400;2024-01-30T12:22:47;15.18;;;8.65;;
51312;SDS011;37397;53.226;10.400;2024-01-30T12:25:15;15.38;;;8.65;;
51312;SDS011;37397;53.226;10.400;2024-01-30T12:27:47;13.60;;;8.35;;
51312;SDS011;37397;53.226;10.400;2024-01-30T12:30:17;16.58;;;9.23;;
51312;SDS011;37397;53.226;10.400;2024-01-30T12:32:45;14.85;;;8.43;;
51312;SDS011;37397;53.226;10.400;2024-01-30T12:35:13;13.65;;;8.25;;
51312;SDS011;37397;53.226;10.400;2024-01-30T12:37:42;12.77;;;8.35;;
51312;SDS011;37397;53.226;10.400;2024-01-30T12:40:10;18.60;;;9.05;;
51312;SDS011;37397;53.226;10.400;2024-01-30T12:42:43;14.45;;;8.57;;
51312;SDS011;37397;53.226;10.400;2024-01-30T12:45:15;14.48;;;8.40;;
51312;SDS011;37397;53.226;10.400;2024-01-30T12:47:42;13.10;;;8.27;;
51312;SDS011;37397;53.226;10.400;2024-01-30T12:50:09;13.05;;;7.65;;
51312;SDS011;37397;53.226;10.400;2024-01-30T12:52:36;14.45;;;8.32;;
51312;SDS011;37397;53.226;10.400;2024-01-30T12:55:03;14.32;;;7.72;;
51312;SDS011;37397;53.226;10.400;2024-01-30T12:57:31;15.30;;;8.30;;
51312;SDS011;37397;53.226;10.400;2024-01-30T12:59:57;15.35;;;9.00;;
51312;SDS011;37397;53.226;10.400;2024-01-30T13:02:24;14.23;;;8.43;;
51312;SDS011;37397;53.226;10.400;2024-01-30T13:04:52;12.55;;;7.90;;
51312;SDS011;37397;53.226;10.400;2024-01-30T13:07:19;14.40;;;8.48;;
51312;SDS011;37397;53.226;10.400;2024-01-30T13:09:47;12.27;;;7.72;;
51312;SDS011;37397;53.226;10.400;2024-01-30T13:12:13;15.18;;;8.05;;
51312;SDS011;37397;53.226;10.400;2024-01-30T13:14:40;13.40;;;8.60;;
51312;SDS011;37397;53.226;10.400;2024-01-30T13:17:09;15.80;;;8.70;;
51312;SDS011;37397;53.226;10.400;2024-01-30T13:19:35;13.50;;;7.82;;
51312;SDS011;37397;53.226;10.400;2024-01-30T13:22:02;13.75;;;8.30;;
51312;SDS011;37397;53.226;10.400;2024-01-30T13:24:29;14.38;;;7.80;;
51312;SDS011;37397;53.226;10.400;2024-01-30T13:26:56;12.27;;;7.75;;
51312;SDS011;37397;53.226;10.400;2024-01-30T13:29:22;14.20;;;8.20;;
51312;SDS011;37397;53.226;10.400;2024-01-30T13:31:49;16.08;;;8.35;;
51312;SDS011;37397;53.226;10.400;2024-01-30T13:34:16;14.50;;;8.75;;
51312;SDS011;37397;53.226;10.400;2024-01-30T13:36:43;13.68;;;7.93;;
51312;SDS011;37397;53.226;10.400;2024-01-30T13:39:11;14.63;;;7.78;;
51312;SDS011;37397;53.226;10.400;2024-01-30T13:41:39;13.07;;;7.65;;
51312;SDS011;37397;53.226;10.400;2024-01-30T13:44:05;16.08;;;8.05;;
51312;SDS011;37397;53.226;10.400;2024-01-30T13:46:32;15.57;;;7.45;;
51312;SDS011;37397;53.226;10.400;2024-01-30T13:48:59;13.50;;;7.18;;
51312;SDS011;37397;53.226;10.400;2024-01-30T13:51:26;12.88;;;7.78;;
51312;SDS011;37397;53.226;10.400;2024-01-30T13:53:53;13.20;;;7.50;;
51312;SDS011;37397;53.226;10.400;2024-01-30T13:56:21;11.95;;;8.27;;
51312;SDS011;37397;53.226;10.400;2024-01-30T13:58:48;14.05;;;8.23;;
51312;SDS011;37397;53.226;10.400;2024-01-30T14:01:16;11.65;;;7.93;;
51312;SDS011;37397;53.226;10.400;2024-01-30T14:03:43;13.93;;;7.88;;
51312;SDS011;37397;53.226;10.400;2024-01-30T14:06:11;15.20;;;8.00;;
51312;SDS011;37397;53.226;10.400;2024-01-30T14:08:38;13.50;;;7.85;;
51312;SDS011;37397;53.226;10.400;2024-01-30T14:11:05;14.75;;;9.00;;
51312;SDS011;37397;53.226;10.400;2024-01-30T14:13:33;16.17;;;7.93;;
51312;SDS011;37397;53.226;10.400;2024-01-30T14:15:59;15.88;;;8.85;;
51312;SDS011;37397;53.226;10.400;2024-01-30T14:18:26;12.48;;;7.68;;